sensor_id;sensor_type;location;lat;lon;timestamp;pressure;altitude;pressure_sealevel;temperature;humidity
21273;BME280;36726;52.328;10.552;2023-02-20T00:00:03;101236.44;;;6.03;100.00
21273;BME280;36726;52.328;10.552;2023-02-20T00:02:31;101239.13;;;6.04;100.00
21273;BME280;36726;52.328;10.552;2023-02-20T00:04:58;101229.50;;;6.05;100.00
21273;BME280;36726;52.328;10.552;2023-02-20T00:07:25;101226.97;;;6.06;100.00
21273;BME280;36726;52.328;10.552;2023-02-20T00:09:51;101219.16;;;6.08;100.00
21273;BME280;36726;52.328;10.552;2023-02-20T00:12:18;101220.94;;;6.09;100.00
21273;BME280;36726;52.328;10.552;2023-02-20T00:14:44;101221.84;;;6.09;100.00
21273;BME280;36726;52.328;10.552;2023-02-20T00:17:11;101218.34;;;6.10;100.00
21273;BME280;36726;52.328;10.552;2023-02-20T00:19:38;101219.25;;;6.11;100.00
21273;BME280;36726;52.328;10.552;2023-02-20T00:22:05;101218.50;;;6.13;100.00
21273;BME280;36726;52.328;10.552;2023-02-20T00:24:31;101214.13;;;6.14;100.00
21273;BME280;36726;52.328;10.552;2023-02-20T00:26:58;101209.78;;;6.14;100.00
21273;BME280;36726;52.328;10.552;2023-02-20T00:29:24;101213.38;;;6.16;100.00
21273;BME280;36726;52.328;10.552;2023-02-20T00:31:56;101213.47;;;6.19;100.00
21273;BME280;36726;52.328;10.552;2023-02-20T00:34:26;101202.22;;;6.22;100.00
21273;BME280;36726;52.328;10.552;2023-02-20T00:36:53;101209.25;;;6.23;100.00
21273;BME280;36726;52.328;10.552;2023-02-20T00:39:20;101213.69;;;6.24;100.00
21273;BME280;36726;52.328;10.552;2023-02-20T00:41:46;101204.00;;;6.23;100.00
21273;BME280;36726;52.328;10.552;2023-02-20T00:44:14;101191.75;;;6.23;100.00
21273;BME280;36726;52.328;10.552;2023-02-20T00:46:41;101189.13;;;6.23;100.00
21273;BME280;36726;52.328;10.552;2023-02-20T00:49:07;101178.56;;;6.22;100.00
21273;BME280;36726;52.328;10.552;2023-02-20T00:51:46;101186.50;;;6.23;100.00
21273;BME280;36726;52.328;10.552;2023-02-20T00:54:14;101184.84;;;6.25;100.00
21273;BME280;36726;52.328;10.552;2023-02-20T00:56:41;101182.22;;;6.25;100.00
21273;BME280;36726;52.328;10.552;2023-02-20T00:59:07;101179.63;;;6.27;100.00
21273;BME280;36726;52.328;10.552;2023-02-20T01:01:34;101170.94;;;6.28;100.00
21273;BME280;36726;52.328;10.552;2023-02-20T01:04:00;101171.00;;;6.29;100.00
21273;BME280;36726;52.328;10.552;2023-02-20T01:06:27;101171.88;;;6.30;100.00
21273;BME280;36726;52.328;10.552;2023-02-20T01:08:53;101170.16;;;6.30;100.00
21273;BME280;36726;52.328;10.552;2023-02-20T01:11:20;101163.22;;;6.32;100.00
21273;BME280;36726;52.328;10.552;2023-02-20T01:13:46;101167.56;;;6.32;100.00
21273;BME280;36726;52.328;10.552;2023-02-20T01:16:13;101160.66;;;6.34;100.00
21273;BME280;36726;52.328;10.552;2023-02-20T01:18:41;101174.75;;;6.36;100.00
21273;BME280;36726;52.328;10.552;2023-02-20T01:21:08;101160.78;;;6.37;100.00
21273;BME280;36726;52.328;10.552;2023-02-20T01:23:34;101159.94;;;6.38;100.00
21273;BME280;36726;52.328;10.552;2023-02-20T01:26:01;101170.44;;;6.38;100.00
21273;BME280;36726;52.328;10.552;2023-02-20T01:28:27;101164.34;;;6.39;100.00
21273;BME280;36726;52.328;10.552;2023-02-20T01:30:54;101152.16;;;6.41;100.00
21273;BME280;36726;52.328;10.552;2023-02-20T01:33:20;101139.03;;;6.41;100.00
21273;BME280;36726;52.328;10.552;2023-02-20T01:35:47;101134.72;;;6.43;100.00
21273;BME280;36726;52.328;10.552;2023-02-20T01:38:14;101128.66;;;6.44;100.00
21273;BME280;36726;52.328;10.552;2023-02-20T01:40:46;101123.34;;;6.43;100.00
21273;BME280;36726;52.328;10.552;2023-02-20T01:43:15;101137.34;;;6.43;100.00
21273;BME280;36726;52.328;10.552;2023-02-20T01:45:42;101125.06;;;6.42;100.00
21273;BME280;36726;52.328;10.552;2023-02-20T01:48:22;101112.84;;;6.43;100.00
21273;BME280;36726;52.328;10.552;2023-02-20T01:50:51;101113.59;;;6.40;100.00
21273;BME280;36726;52.328;10.552;2023-02-20T01:53:20;101091.69;;;6.40;100.00
21273;BME280;36726;52.328;10.552;2023-02-20T01:55:53;101089.97;;;6.40;100.00
21273;BME280;36726;52.328;10.552;2023-02-20T02:00:54;101082.06;;;6.40;100.00
21273;BME280;36726;52.328;10.552;2023-02-20T02:03:25;101059.25;;;6.39;100.00
21273;BME280;36726;52.328;10.552;2023-02-20T02:05:57;101064.50;;;6.39;100.00
21273;BME280;36726;52.328;10.552;2023-02-20T02:08:27;101072.47;;;6.41;100.00
21273;BME280;36726;52.328;10.552;2023-02-20T02:10:58;101076.91;;;6.43;100.00
21273;BME280;36726;52.328;10.552;2023-02-20T02:13:28;101075.25;;;6.45;100.00
21273;BME280;36726;52.328;10.552;2023-02-20T02:22:03;101054.69;;;6.34;100.00
21273;BME280;36726;52.328;10.552;2023-02-20T02:36:00;101034.03;;;6.20;100.00
21273;BME280;36726;52.328;10.552;2023-02-20T02:41:09;101020.06;;;6.21;100.00
21273;BME280;36726;52.328;10.552;2023-02-20T02:46:40;101008.66;;;6.21;100.00
21273;BME280;36726;52.328;10.552;2023-02-20T02:49:25;101015.72;;;6.22;100.00
21273;BME280;36726;52.328;10.552;2023-02-20T02:51:54;101008.72;;;6.22;100.00
21273;BME280;36726;52.328;10.552;2023-02-20T02:54:25;101007.88;;;6.23;100.00
21273;BME280;36726;52.328;10.552;2023-02-20T02:57:17;101009.75;;;6.26;100.00
21273;BME280;36726;52.328;10.552;2023-02-20T02:59:46;100998.44;;;6.28;100.00
21273;BME280;36726;52.328;10.552;2023-02-20T03:02:16;100990.59;;;6.30;100.00
21273;BME280;36726;52.328;10.552;2023-02-20T03:04:46;100996.91;;;6.34;100.00
21273;BME280;36726;52.328;10.552;2023-02-20T03:07:15;101004.81;;;6.35;100.00
21273;BME280;36726;52.328;10.552;2023-02-20T03:09:51;100998.66;;;6.35;100.00
21273;BME280;36726;52.328;10.552;2023-02-20T03:12:20;100999.44;;;6.32;100.00
21273;BME280;36726;52.328;10.552;2023-02-20T03:15:09;100994.03;;;6.27;100.00
21273;BME280;36726;52.328;10.552;2023-02-20T03:18:09;101004.50;;;6.26;100.00
21273;BME280;36726;52.328;10.552;2023-02-20T03:20:41;101005.34;;;6.26;100.00
21273;BME280;36726;52.328;10.552;2023-02-20T03:23:13;100999.34;;;6.29;100.00
21273;BME280;36726;52.328;10.552;2023-02-20T03:25:49;101002.91;;;6.31;100.00
21273;BME280;36726;52.328;10.552;2023-02-20T03:28:25;100996.91;;;6.34;100.00
21273;BME280;36726;52.328;10.552;2023-02-20T03:31:02;100994.31;;;6.35;100.00
21273;BME280;36726;52.328;10.552;2023-02-20T03:33:54;100984.81;;;6.39;100.00
21273;BME280;36726;52.328;10.552;2023-02-20T03:37:02;100998.81;;;6.39;100.00
21273;BME280;36726;52.328;10.552;2023-02-20T03:39:52;100991.97;;;6.43;99.63
21273;BME280;36726;52.328;10.552;2023-02-20T03:42:42;100983.28;;;6.45;100.00
21273;BME280;36726;52.328;10.552;2023-02-20T03:45:36;100981.59;;;6.47;99.86
21273;BME280;36726;52.328;10.552;2023-02-20T03:48:10;100977.31;;;6.49;99.75
21273;BME280;36726;52.328;10.552;2023-02-20T03:50:40;100976.44;;;6.50;100.00
21273;BME280;36726;52.328;10.552;2023-02-20T03:53:30;100975.63;;;6.51;99.22
21273;BME280;36726;52.328;10.552;2023-02-20T03:55:59;100975.69;;;6.53;99.64
21273;BME280;36726;52.328;10.552;2023-02-20T03:58:30;100963.44;;;6.53;98.89
21273;BME280;36726;52.328;10.552;2023-02-20T04:01:02;100953.75;;;6.52;99.25
21273;BME280;36726;52.328;10.552;2023-02-20T04:03:32;100948.53;;;6.54;99.18
21273;BME280;36726;52.328;10.552;2023-02-20T04:06:03;100940.75;;;6.55;99.02
21273;BME280;36726;52.328;10.552;2023-02-20T04:08:41;100937.25;;;6.56;98.99
21273;BME280;36726;52.328;10.552;2023-02-20T04:11:22;100931.09;;;6.56;99.11
21273;BME280;36726;52.328;10.552;2023-02-20T04:13:52;100923.25;;;6.57;98.88
21273;BME280;36726;52.328;10.552;2023-02-20T04:16:20;100928.50;;;6.57;99.19
21273;BME280;36726;52.328;10.552;2023-02-20T04:18:48;100924.22;;;6.59;98.93
21273;BME280;36726;52.328;10.552;2023-02-20T04:21:22;100916.31;;;6.59;99.10
21273;BME280;36726;52.328;10.552;2023-02-20T04:24:03;100908.44;;;6.59;99.04
21273;BME280;36726;52.328;10.552;2023-02-20T04:26:32;100916.44;;;6.62;99.15
21273;BME280;36726;52.328;10.552;2023-02-20T04:29:00;100914.69;;;6.63;99.06
21273;BME280;36726;52.328;10.552;2023-02-20T04:31:26;100905.94;;;6.62;99.32
21273;BME280;36726;52.328;10.552;2023-02-20T04:33:53;100911.19;;;6.62;99.40
21273;BME280;36726;52.328;10.552;2023-02-20T04:36:22;100913.81;;;6.62;99.13
21273;BME280;36726;52.328;10.552;2023-02-20T04:38:50;100911.16;;;6.61;98.76
21273;BME280;36726;52.328;10.552;2023-02-20T04:41:21;100894.34;;;6.57;99.25
21273;BME280;36726;52.328;10.552;2023-02-20T04:43:48;100891.63;;;6.54;99.32
21273;BME280;36726;52.328;10.552;2023-02-20T04:46:15;100888.06;;;6.52;99.02
21273;BME280;36726;52.328;10.552;2023-02-20T04:48:43;100877.53;;;6.52;99.54
21273;BME280;36726;52.328;10.552;2023-02-20T04:51:09;100881.03;;;6.51;99.63
21273;BME280;36726;52.328;10.552;2023-02-20T04:53:36;100869.59;;;6.51;99.92
21273;BME280;36726;52.328;10.552;2023-02-20T04:56:03;100868.84;;;6.53;100.00
21273;BME280;36726;52.328;10.552;2023-02-20T04:58:32;100853.19;;;6.58;99.67
21273;BME280;36726;52.328;10.552;2023-02-20T05:01:10;100850.78;;;6.64;99.54
21273;BME280;36726;52.328;10.552;2023-02-20T05:03:37;100863.06;;;6.65;99.42
21273;BME280;36726;52.328;10.552;2023-02-20T05:06:04;100860.63;;;6.69;98.85
21273;BME280;36726;52.328;10.552;2023-02-20T05:08:30;100844.94;;;6.72;99.11
21273;BME280;36726;52.328;10.552;2023-02-20T05:10:57;100852.06;;;6.76;98.68
21273;BME280;36726;52.328;10.552;2023-02-20T05:13:26;100852.06;;;6.76;99.09
21273;BME280;36726;52.328;10.552;2023-02-20T05:15:52;100853.75;;;6.74;98.69
21273;BME280;36726;52.328;10.552;2023-02-20T05:18:26;100865.00;;;6.70;98.84
21273;BME280;36726;52.328;10.552;2023-02-20T05:20:53;100863.06;;;6.65;99.10
21273;BME280;36726;52.328;10.552;2023-02-20T05:23:38;100868.25;;;6.62;99.15
21273;BME280;36726;52.328;10.552;2023-02-20T05:26:09;100858.47;;;6.58;98.96
21273;BME280;36726;52.328;10.552;2023-02-20T05:28:36;100861.91;;;6.55;99.28
21273;BME280;36726;52.328;10.552;2023-02-20T05:31:05;100846.13;;;6.55;99.75
21273;BME280;36726;52.328;10.552;2023-02-20T05:33:31;100849.59;;;6.54;100.00
21273;BME280;36726;52.328;10.552;2023-02-20T05:35:59;100841.75;;;6.56;100.00
21273;BME280;36726;52.328;10.552;2023-02-20T05:38:26;100831.28;;;6.57;99.80
21273;BME280;36726;52.328;10.552;2023-02-20T05:40:52;100825.19;;;6.58;99.82
21273;BME280;36726;52.328;10.552;2023-02-20T05:43:19;100816.53;;;6.61;99.86
21273;BME280;36726;52.328;10.552;2023-02-20T05:45:46;100804.25;;;6.61;99.84
21273;BME280;36726;52.328;10.552;2023-02-20T05:48:13;100798.22;;;6.64;99.88
21273;BME280;36726;52.328;10.552;2023-02-20T05:50:40;100788.69;;;6.67;98.87
21273;BME280;36726;52.328;10.552;2023-02-20T05:53:16;100790.59;;;6.71;99.09
21273;BME280;36726;52.328;10.552;2023-02-20T05:55:42;100790.59;;;6.71;99.16
21273;BME280;36726;52.328;10.552;2023-02-20T05:58:09;100784.50;;;6.74;98.64
21273;BME280;36726;52.328;10.552;2023-02-20T06:00:36;100783.72;;;6.76;99.01
21273;BME280;36726;52.328;10.552;2023-02-20T06:03:06;100771.53;;;6.78;98.91
21273;BME280;36726;52.328;10.552;2023-02-20T06:05:32;100784.75;;;6.81;98.16
21273;BME280;36726;52.328;10.552;2023-02-20T06:07:59;100775.19;;;6.83;98.24
21273;BME280;36726;52.328;10.552;2023-02-20T06:10:26;100769.97;;;6.85;97.87
21273;BME280;36726;52.328;10.552;2023-02-20T06:12:52;100779.69;;;6.87;98.00
21273;BME280;36726;52.328;10.552;2023-02-20T06:15:19;100770.13;;;6.89;97.95
21273;BME280;36726;52.328;10.552;2023-02-20T06:17:45;100768.44;;;6.91;97.67
21273;BME280;36726;52.328;10.552;2023-02-20T06:20:12;100767.56;;;6.92;97.50
21273;BME280;36726;52.328;10.552;2023-02-20T06:22:38;100761.47;;;6.93;97.65
21273;BME280;36726;52.328;10.552;2023-02-20T06:25:05;100763.25;;;6.94;97.40
21273;BME280;36726;52.328;10.552;2023-02-20T06:27:32;100762.41;;;6.95;97.32
21273;BME280;36726;52.328;10.552;2023-02-20T06:29:58;100770.28;;;6.95;97.54
21273;BME280;36726;52.328;10.552;2023-02-20T06:32:25;100775.53;;;6.95;97.14
21273;BME280;36726;52.328;10.552;2023-02-20T06:34:52;100770.28;;;6.95;97.67
21273;BME280;36726;52.328;10.552;2023-02-20T06:37:18;100765.03;;;6.95;97.31
21273;BME280;36726;52.328;10.552;2023-02-20T06:39:45;100759.78;;;6.95;97.52
21273;BME280;36726;52.328;10.552;2023-02-20T06:42:14;100765.97;;;6.97;97.59
21273;BME280;36726;52.328;10.552;2023-02-20T06:44:40;100765.16;;;6.98;97.67
21273;BME280;36726;52.328;10.552;2023-02-20T06:47:07;100764.28;;;6.99;97.36
21273;BME280;36726;52.328;10.552;2023-02-20T06:49:35;100770.47;;;7.01;97.58
21273;BME280;36726;52.328;10.552;2023-02-20T06:52:02;100763.53;;;7.03;96.82
21273;BME280;36726;52.328;10.552;2023-02-20T06:54:30;100756.66;;;7.08;97.17
21273;BME280;36726;52.328;10.552;2023-02-20T06:56:56;100750.63;;;7.11;96.74
21273;BME280;36726;52.328;10.552;2023-02-20T06:59:23;100763.84;;;7.14;96.85
21273;BME280;36726;52.328;10.552;2023-02-20T07:01:50;100762.19;;;7.17;96.64
21273;BME280;36726;52.328;10.552;2023-02-20T07:04:23;100763.22;;;7.22;95.86
21273;BME280;36726;52.328;10.552;2023-02-20T07:06:53;100759.88;;;7.28;95.68
21273;BME280;36726;52.328;10.552;2023-02-20T07:09:21;100752.13;;;7.32;95.28
21273;BME280;36726;52.328;10.552;2023-02-20T07:11:48;100751.34;;;7.36;95.27
21273;BME280;36726;52.328;10.552;2023-02-20T07:14:16;100753.19;;;7.39;95.12
21273;BME280;36726;52.328;10.552;2023-02-20T07:16:42;100747.16;;;7.43;94.39
21273;BME280;36726;52.328;10.552;2023-02-20T07:19:10;100749.06;;;7.49;93.94
21273;BME280;36726;52.328;10.552;2023-02-20T07:21:36;100757.13;;;7.55;93.17
21273;BME280;36726;52.328;10.552;2023-02-20T07:24:03;100745.84;;;7.59;93.01
21273;BME280;36726;52.328;10.552;2023-02-20T07:26:30;100744.22;;;7.64;92.97
21273;BME280;36726;52.328;10.552;2023-02-20T07:28:57;100746.09;;;7.68;92.52
21273;BME280;36726;52.328;10.552;2023-02-20T07:31:24;100753.22;;;7.72;92.02
21273;BME280;36726;52.328;10.552;2023-02-20T07:33:51;100745.44;;;7.76;92.39
21273;BME280;36726;52.328;10.552;2023-02-20T07:36:18;100741.16;;;7.80;91.47
21273;BME280;36726;52.328;10.552;2023-02-20T07:38:57;100754.47;;;7.86;90.98
21273;BME280;36726;52.328;10.552;2023-02-20T07:41:25;100746.72;;;7.90;91.30
21273;BME280;36726;52.328;10.552;2023-02-20T07:43:55;100746.78;;;7.93;90.73
21273;BME280;36726;52.328;10.552;2023-02-20T07:46:22;100744.28;;;7.98;90.69
21273;BME280;36726;52.328;10.552;2023-02-20T07:48:48;100727.63;;;7.99;90.24
21273;BME280;36726;52.328;10.552;2023-02-20T07:51:15;100733.03;;;8.05;89.92
21273;BME280;36726;52.328;10.552;2023-02-20T07:53:49;100726.91;;;8.06;90.14
21273;BME280;36726;52.328;10.552;2023-02-20T07:56:17;100714.75;;;8.11;89.06
21273;BME280;36726;52.328;10.552;2023-02-20T07:58:44;100729.84;;;8.18;89.08
21273;BME280;36726;52.328;10.552;2023-02-20T08:01:11;100713.03;;;8.47;90.42
21273;BME280;36726;52.328;10.552;2023-02-20T08:03:38;100715.34;;;8.72;86.80
21273;BME280;36726;52.328;10.552;2023-02-20T08:06:08;100704.41;;;8.93;85.16
21273;BME280;36726;52.328;10.552;2023-02-20T08:08:35;100701.09;;;9.03;83.04
21273;BME280;36726;52.328;10.552;2023-02-20T08:11:05;100681.25;;;9.21;84.16
21273;BME280;36726;52.328;10.552;2023-02-20T08:13:36;100686.50;;;9.20;83.08
21273;BME280;36726;52.328;10.552;2023-02-20T08:16:03;100690.91;;;9.21;83.52
21273;BME280;36726;52.328;10.552;2023-02-20T08:18:30;100684.69;;;9.17;83.54
21273;BME280;36726;52.328;10.552;2023-02-20T08:20:56;100688.16;;;9.13;82.43
21273;BME280;36726;52.328;10.552;2023-02-20T08:23:23;100690.63;;;9.06;82.17
21273;BME280;36726;52.328;10.552;2023-02-20T08:25:51;100679.03;;;8.99;82.28
21273;BME280;36726;52.328;10.552;2023-02-20T08:28:18;100681.66;;;8.99;81.88
21273;BME280;36726;52.328;10.552;2023-02-20T08:30:45;100687.78;;;8.97;82.29
21273;BME280;36726;52.328;10.552;2023-02-20T08:33:12;100686.88;;;8.95;82.49
21273;BME280;36726;52.328;10.552;2023-02-20T08:35:39;100692.03;;;8.90;82.15
21273;BME280;36726;52.328;10.552;2023-02-20T08:38:26;100666.53;;;8.91;82.90
21273;BME280;36726;52.328;10.552;2023-02-20T08:40:54;100660.38;;;8.90;82.01
21273;BME280;36726;52.328;10.552;2023-02-20T08:43:21;100661.25;;;8.89;82.21
21273;BME280;36726;52.328;10.552;2023-02-20T08:45:50;100656.94;;;8.94;82.68
21273;BME280;36726;52.328;10.552;2023-02-20T08:48:17;100660.50;;;8.96;82.14
21273;BME280;36726;52.328;10.552;2023-02-20T08:50:44;100670.31;;;9.03;82.13
21273;BME280;36726;52.328;10.552;2023-02-20T08:53:15;100663.38;;;9.08;81.38
21273;BME280;36726;52.328;10.552;2023-02-20T08:55:42;100647.56;;;9.10;80.36
21273;BME280;36726;52.328;10.552;2023-02-20T08:58:09;100656.50;;;9.15;80.94
21273;BME280;36726;52.328;10.552;2023-02-20T09:00:35;100659.19;;;9.18;80.99
21273;BME280;36726;52.328;10.552;2023-02-20T09:03:02;100664.50;;;9.19;81.39
21273;BME280;36726;52.328;10.552;2023-02-20T09:05:33;100659.19;;;9.18;80.87
21273;BME280;36726;52.328;10.552;2023-02-20T09:08:03;100662.78;;;9.21;81.61
21273;BME280;36726;52.328;10.552;2023-02-20T09:10:30;100658.44;;;9.25;81.41
21273;BME280;36726;52.328;10.552;2023-02-20T09:12:56;100661.97;;;9.25;80.10
21273;BME280;36726;52.328;10.552;2023-02-20T09:15:23;100658.56;;;9.29;79.51
21273;BME280;36726;52.328;10.552;2023-02-20T09:17:51;100643.75;;;9.39;80.05
21273;BME280;36726;52.328;10.552;2023-02-20T09:20:19;100657.16;;;9.50;79.02
21273;BME280;36726;52.328;10.552;2023-02-20T09:22:47;100668.91;;;9.67;78.26
21273;BME280;36726;52.328;10.552;2023-02-20T09:25:14;100680.44;;;9.72;77.74
21273;BME280;36726;52.328;10.552;2023-02-20T09:27:42;100674.34;;;9.74;77.59
21273;BME280;36726;52.328;10.552;2023-02-20T09:30:09;100676.09;;;9.75;77.86
21273;BME280;36726;52.328;10.552;2023-02-20T09:32:38;100663.81;;;9.77;77.94
21273;BME280;36726;52.328;10.552;2023-02-20T09:35:05;100649.94;;;9.87;78.02
21273;BME280;36726;52.328;10.552;2023-02-20T09:37:32;100649.13;;;9.93;77.76
21273;BME280;36726;52.328;10.552;2023-02-20T09:39:58;100645.63;;;9.94;77.90
21273;BME280;36726;52.328;10.552;2023-02-20T09:42:41;100638.63;;;9.97;77.71
21273;BME280;36726;52.328;10.552;2023-02-20T09:45:27;100645.69;;;9.98;78.69
21273;BME280;36726;52.328;10.552;2023-02-20T09:51:13;100644.97;;;10.07;81.22
21273;BME280;36726;52.328;10.552;2023-02-20T09:56:16;100640.66;;;10.12;78.69
21273;BME280;36726;52.328;10.552;2023-02-20T09:58:59;100643.84;;;9.93;78.68
21273;BME280;36726;52.328;10.552;2023-02-20T10:01:28;100632.97;;;9.75;79.56
21273;BME280;36726;52.328;10.552;2023-02-20T10:04:10;100641.75;;;9.74;80.79
21273;BME280;36726;52.328;10.552;2023-02-20T10:06:39;100645.94;;;9.63;81.62
21273;BME280;36726;52.328;10.552;2023-02-20T10:09:10;100639.72;;;9.58;82.44
21273;BME280;36726;52.328;10.552;2023-02-20T10:17:05;100623.66;;;9.46;84.44
21273;BME280;36726;52.328;10.552;2023-02-20T10:20:03;100606.88;;;9.42;85.31
21273;BME280;36726;52.328;10.552;2023-02-20T10:22:42;100617.38;;;9.40;85.23
21273;BME280;36726;52.328;10.552;2023-02-20T10:30:38;100610.16;;;9.29;86.52
21273;BME280;36726;52.328;10.552;2023-02-20T10:33:20;100609.22;;;9.27;87.67
21273;BME280;36726;52.328;10.552;2023-02-20T10:38:26;100613.69;;;9.29;87.92
21273;BME280;36726;52.328;10.552;2023-02-20T10:41:05;100616.31;;;9.29;88.04
21273;BME280;36726;52.328;10.552;2023-02-20T10:43:53;100616.31;;;9.29;88.44
21273;BME280;36726;52.328;10.552;2023-02-20T10:46:27;100622.41;;;9.27;89.57
21273;BME280;36726;52.328;10.552;2023-02-20T10:49:41;100631.13;;;9.23;89.46
21273;BME280;36726;52.328;10.552;2023-02-20T10:52:12;100606.41;;;9.18;90.15
21273;BME280;36726;52.328;10.552;2023-02-20T10:55:43;100624.88;;;9.16;91.01
21273;BME280;36726;52.328;10.552;2023-02-20T10:58:29;100620.41;;;9.14;91.42
21273;BME280;36726;52.328;10.552;2023-02-20T11:01:08;100623.94;;;9.14;91.95
21273;BME280;36726;52.328;10.552;2023-02-20T11:03:46;100627.47;;;9.15;92.14
21273;BME280;36726;52.328;10.552;2023-02-20T11:06:20;100611.66;;;9.15;92.07
21273;BME280;36726;52.328;10.552;2023-02-20T11:08:47;100623.00;;;9.12;92.64
21273;BME280;36726;52.328;10.552;2023-02-20T11:13:53;100611.66;;;9.15;93.02
21273;BME280;36726;52.328;10.552;2023-02-20T11:16:23;100605.41;;;9.11;92.60
21273;BME280;36726;52.328;10.552;2023-02-20T11:19:03;100595.84;;;9.18;93.26
21273;BME280;36726;52.328;10.552;2023-02-20T11:21:34;100587.03;;;9.17;93.61
21273;BME280;36726;52.328;10.552;2023-02-20T11:26:48;100593.09;;;9.12;94.01
21273;BME280;36726;52.328;10.552;2023-02-20T11:29:19;100605.50;;;9.16;94.16
21273;BME280;36726;52.328;10.552;2023-02-20T11:31:47;100588.84;;;9.18;94.42
21273;BME280;36726;52.328;10.552;2023-02-20T11:34:20;100576.59;;;9.22;94.41
21273;BME280;36726;52.328;10.552;2023-02-20T11:36:52;100596.63;;;9.12;94.36
21273;BME280;36726;52.328;10.552;2023-02-20T11:39:23;100583.47;;;9.14;94.58
21273;BME280;36726;52.328;10.552;2023-02-20T11:42:12;100601.88;;;9.11;95.03
21273;BME280;36726;52.328;10.552;2023-02-20T11:44:40;100591.22;;;9.06;95.24
21273;BME280;36726;52.328;10.552;2023-02-20T11:49:44;100581.44;;;9.01;96.06
21273;BME280;36726;52.328;10.552;2023-02-20T11:52:19;100579.72;;;9.03;95.85
21273;BME280;36726;52.328;10.552;2023-02-20T11:54:47;100578.84;;;9.02;95.88
21273;BME280;36726;52.328;10.552;2023-02-20T11:57:36;100567.47;;;9.05;95.84
21273;BME280;36726;52.328;10.552;2023-02-20T12:00:15;100574.53;;;9.06;96.00
21273;BME280;36726;52.328;10.552;2023-02-20T12:02:55;100552.56;;;9.08;95.53
21273;BME280;36726;52.328;10.552;2023-02-20T12:05:51;100553.50;;;9.10;96.79
21273;BME280;36726;52.328;10.552;2023-02-20T12:08:42;100553.63;;;9.16;96.31
21273;BME280;36726;52.328;10.552;2023-02-20T12:11:16;100554.53;;;9.18;95.84
21273;BME280;36726;52.328;10.552;2023-02-20T12:13:46;100549.34;;;9.24;95.24
21273;BME280;36726;52.328;10.552;2023-02-20T12:21:46;100544.00;;;9.20;96.00
21273;BME280;36726;52.328;10.552;2023-02-20T12:30:02;100542.91;;;9.09;95.72
21273;BME280;36726;52.328;10.552;2023-02-20T12:35:24;100548.16;;;9.06;96.68
21273;BME280;36726;52.328;10.552;2023-02-20T12:43:54;100564.84;;;9.06;96.51
21273;BME280;36726;52.328;10.552;2023-02-20T12:49:57;100562.94;;;8.99;97.73
21273;BME280;36726;52.328;10.552;2023-02-20T12:52:48;100576.88;;;8.92;98.15
21273;BME280;36726;52.328;10.552;2023-02-20T12:58:00;100575.00;;;8.85;99.21
21273;BME280;36726;52.328;10.552;2023-02-20T13:00:33;100596.03;;;8.82;100.00
21273;BME280;36726;52.328;10.552;2023-02-20T13:05:46;100591.56;;;8.78;100.00
21273;BME280;36726;52.328;10.552;2023-02-20T13:08:19;100584.59;;;8.82;100.00
21273;BME280;36726;52.328;10.552;2023-02-20T13:10:57;100566.16;;;8.83;100.00
21273;BME280;36726;52.328;10.552;2023-02-20T13:13:26;100554.78;;;8.86;100.00
21273;BME280;36726;52.328;10.552;2023-02-20T13:16:07;100558.31;;;8.86;100.00
21273;BME280;36726;52.328;10.552;2023-02-20T13:18:46;100555.56;;;8.80;100.00
21273;BME280;36726;52.328;10.552;2023-02-20T13:21:16;100544.91;;;8.76;100.00
21273;BME280;36726;52.328;10.552;2023-02-20T13:23:43;100548.31;;;8.70;100.00
21273;BME280;36726;52.328;10.552;2023-02-20T13:26:42;100538.63;;;8.69;100.00
21273;BME280;36726;52.328;10.552;2023-02-20T13:29:13;100547.28;;;8.62;100.00
21273;BME280;36726;52.328;10.552;2023-02-20T13:31:46;100537.50;;;8.57;100.00
21273;BME280;36726;52.328;10.552;2023-02-20T13:36:42;100551.44;;;8.51;100.00
21273;BME280;36726;52.328;10.552;2023-02-20T13:49:55;100530.84;;;8.75;100.00
21273;BME280;36726;52.328;10.552;2023-02-20T13:52:41;100536.13;;;8.75;100.00
21273;BME280;36726;52.328;10.552;2023-02-20T13:57:48;100542.25;;;8.74;100.00
21273;BME280;36726;52.328;10.552;2023-02-20T14:00:25;100541.28;;;8.69;100.00
21273;BME280;36726;52.328;10.552;2023-02-20T14:02:53;100537.75;;;8.70;100.00
21273;BME280;36726;52.328;10.552;2023-02-20T14:05:27;100533.34;;;8.69;100.00
21273;BME280;36726;52.328;10.552;2023-02-20T14:07:54;100533.38;;;8.71;100.00
21273;BME280;36726;52.328;10.552;2023-02-20T14:10:37;100524.56;;;8.70;100.00
21273;BME280;36726;52.328;10.552;2023-02-20T14:15:43;100522.94;;;8.75;100.00
21273;BME280;36726;52.328;10.552;2023-02-20T14:18:19;100532.63;;;8.76;100.00
21273;BME280;36726;52.328;10.552;2023-02-20T14:20:47;100524.69;;;8.76;100.00
21273;BME280;36726;52.328;10.552;2023-02-20T14:23:19;100532.63;;;8.76;100.00
21273;BME280;36726;52.328;10.552;2023-02-20T14:25:52;100529.06;;;8.74;100.00
21273;BME280;36726;52.328;10.552;2023-02-20T14:28:28;100537.88;;;8.76;100.00
21273;BME280;36726;52.328;10.552;2023-02-20T14:31:17;100528.22;;;8.75;100.00
21273;BME280;36726;52.328;10.552;2023-02-20T14:33:48;100519.38;;;8.73;100.00
21273;BME280;36726;52.328;10.552;2023-02-20T14:36:33;100532.56;;;8.73;100.00
21273;BME280;36726;52.328;10.552;2023-02-20T14:39:05;100517.59;;;8.72;100.00
21273;BME280;36726;52.328;10.552;2023-02-20T14:41:36;100524.66;;;8.73;100.00
21273;BME280;36726;52.328;10.552;2023-02-20T14:44:05;100522.81;;;8.69;100.00
21273;BME280;36726;52.328;10.552;2023-02-20T14:46:39;100519.28;;;8.69;100.00